Time;durP1;ratioP1;P1;durP2;ratioP2;P2;SDS_P1;SDS_P2;PMS_P1;PMS_P2;Temp;Humidity;BMP_temperature;BMP_pressure;BME280_temperature;BME280_humidity;BME280_pressure;Samples;Min_cycle;Max_cycle;Signal;HPM_P1;HPM_P2
2022/05/11 00:00:00;;;;;;;6.67;2.20;;;;;;;18.23;50.03;101221.41;5191608;28;20035;-77
2022/05/11 00:02:31;;;;;;;5.47;2.27;;;;;;;18.23;50.28;101215.28;5205979;28;20073;-77
2022/05/11 00:05:08;;;;;;;6.37;3.00;;;;;;;18.21;50.22;101222.50;5191175;28;20038;-77
2022/05/11 00:07:39;;;;;;;4.80;2.10;;;;;;;17.99;50.92;101221.69;5181522;28;20038;-76
2022/05/11 00:10:13;;;;;;;6.00;1.80;;;;;;;18.03;50.70;101220.44;5169598;28;20035;-77
2022/05/11 00:12:46;;;;;;;;;;;;;;;18.23;49.63;101221.41;5188871;28;20321;-76
2022/05/11 00:15:20;;;;;;;6.43;2.60;;;;;;;18.05;50.67;101210.56;5207538;28;19945;-76
2022/05/11 00:17:51;;;;;;;4.28;1.92;;;;;;;17.78;51.50;101209.31;5192019;28;20031;-76
2022/05/11 00:20:23;;;;;;;7.23;2.30;;;;;;;17.96;50.79;101211.38;5194492;28;20017;-77
2022/05/11 00:22:56;;;;;;;5.07;1.93;;;;;;;17.93;50.81;101203.66;5194692;28;20038;-77
2022/05/11 00:25:28;;;;;;;9.60;3.03;;;;;;;17.97;50.83;101205.94;5193892;28;20473;-77
2022/05/11 00:27:59;;;;;;;5.53;2.10;;;;;;;17.94;50.72;101200.91;5209435;28;20026;-77
2022/05/11 00:30:31;;;;;;;6.17;2.93;;;;;;;17.92;50.73;101183.44;5194635;28;20101;-77
2022/05/11 00:33:02;;;;;;;5.00;2.03;;;;;;;17.95;50.45;101191.13;5194302;28;20026;-77
2022/05/11 00:35:34;;;;;;;7.63;2.20;;;;;;;17.93;50.86;101196.56;5194802;28;20026;-77
2022/05/11 00:38:06;;;;;;;9.83;1.93;;;;;;;17.90;50.08;101183.59;5193851;28;20106;-76
2022/05/11 00:40:43;;;;;;;10.90;2.43;;;;;;;17.96;50.34;101184.88;5193591;28;20030;-77
2022/05/11 00:43:38;;;;;;;7.47;2.07;;;;;;;17.98;49.85;101186.41;5192306;28;20501;-77
2022/05/11 00:46:29;;;;;;;6.03;2.00;;;;;;;17.88;50.05;101178.41;5194090;28;20046;-76
2022/05/11 00:52:32;;;;;;;10.03;2.17;;;;;;;17.88;50.25;101175.78;5200479;28;20176;-77
2022/05/11 00:55:16;;;;;;;6.67;2.07;;;;;;;17.81;50.45;101160.50;5193145;28;20031;-76
2022/05/11 00:57:54;;;;;;;6.63;2.00;;;;;;;17.77;50.93;101167.88;5193751;28;20067;-76
2022/05/11 01:00:26;;;;;;;9.23;2.30;;;;;;;17.56;51.62;101163.44;5194392;28;20022;-76
2022/05/11 01:03:08;;;;;;;9.20;2.30;;;;;;;17.77;50.86;101158.13;5193131;28;20022;-76
2022/05/11 01:05:44;;;;;;;7.53;2.23;;;;;;;17.73;51.04;101161.19;5226826;22;20048;-76
2022/05/11 01:08:19;;;;;;;3.27;1.90;;;;;;;17.66;51.34;101167.00;5234101;28;20545;-75
2022/05/11 01:10:50;;;;;;;;;;;;;;;17.87;50.08;101160.81;5232868;28;20112;-76
2022/05/11 01:13:22;;;;;;;4.17;1.80;;;;;;;17.65;51.73;101149.44;5228889;28;20001;-76
2022/05/11 01:15:53;;;;;;;6.90;1.50;;;;;;;17.70;51.16;101145.56;5228385;28;20395;-76
2022/05/11 01:18:25;;;;;;;6.77;1.70;;;;;;;17.68;51.30;101153.63;5233726;28;20025;-76
2022/05/11 01:20:57;;;;;;;5.67;1.67;;;;;;;17.73;51.23;101142.66;5235246;28;20084;-76
2022/05/11 01:24:02;;;;;;;8.20;2.10;;;;;;;17.74;51.09;101139.00;5225630;28;20108;-76
2022/05/11 01:26:34;;;;;;;4.57;2.03;;;;;;;17.61;51.78;101133.94;5232975;28;20383;-75
2022/05/11 01:29:05;;;;;;;7.83;2.00;;;;;;;17.69;51.96;101136.78;5232941;28;20040;-76
2022/05/11 01:31:36;;;;;;;3.63;2.67;;;;;;;17.56;52.34;101142.28;5215025;28;20034;-76
2022/05/11 01:34:10;;;;;;;5.97;1.57;;;;;;;17.53;52.29;101142.53;5222179;28;20022;-76
2022/05/11 01:36:42;;;;;;;4.80;1.33;;;;;;;17.61;52.05;101139.25;5225658;28;20034;-75
2022/05/11 01:39:14;;;;;;;6.23;2.33;;;;;;;17.58;51.87;101140.34;5217826;28;20029;-76
2022/05/11 01:41:53;;;;;;;3.90;1.90;;;;;;;17.60;51.88;101134.91;5218843;28;20396;-76
2022/05/11 01:44:24;;;;;;;7.23;1.60;;;;;;;17.52;52.46;101140.88;5229178;28;20784;-76
2022/05/11 01:46:58;;;;;;;3.27;1.70;;;;;;;17.56;52.19;101138.81;5234720;28;20029;-76
2022/05/11 01:49:30;;;;;;;5.22;1.70;;;;;;;17.49;52.64;101136.66;5221329;28;20064;-75
2022/05/11 01:52:02;;;;;;;4.43;1.70;;;;;;;17.46;52.68;101136.06;5234769;28;20025;-76
2022/05/11 01:54:33;;;;;;;5.50;2.13;;;;;;;17.50;52.43;101140.16;5218276;28;20519;-76
2022/05/11 01:57:04;;;;;;;6.23;2.10;;;;;;;17.48;52.69;101145.59;5221471;28;20025;-75
2022/05/11 01:59:36;;;;;;;6.27;1.83;;;;;;;17.44;52.63;101135.41;5212599;28;20034;-76
2022/05/11 02:02:07;;;;;;;6.57;2.00;;;;;;;17.38;52.58;101126.16;5213133;28;20024;-75
2022/05/11 02:10:20;;;;;;;5.33;2.00;;;;;;;17.40;52.52;101125.03;5212780;28;20125;-77
2022/05/11 02:12:52;;;;;;;6.82;1.95;;;;;;;17.36;52.97;101130.72;5224622;28;20033;-75
2022/05/11 02:15:25;;;;;;;9.67;2.60;;;;;;;17.31;52.96;101123.19;5215534;28;20018;-76
2022/05/11 02:17:56;;;;;;;3.20;2.03;;;;;;;17.25;53.38;101121.03;5221722;28;20048;-76
2022/05/11 02:20:28;;;;;;;11.40;2.03;;;;;;;17.38;52.99;101116.41;5224745;28;20017;-76
2022/05/11 02:22:59;;;;;;;8.00;2.50;;;;;;;17.28;53.50;101123.44;5213701;28;20030;-76
2022/05/11 02:25:31;;;;;;;8.67;2.20;;;;;;;17.22;53.55;101118.66;5233121;28;20014;-76
2022/05/11 02:28:02;;;;;;;11.03;3.33;;;;;;;17.20;53.48;101117.94;5231463;28;20029;-76
2022/05/11 02:30:33;;;;;;;6.80;2.50;;;;;;;17.20;53.49;101117.94;5219713;28;20022;-76
2022/05/11 02:33:05;;;;;;;5.90;2.37;;;;;;;17.15;53.76;101108.59;5234491;28;20192;-76
2022/05/11 02:35:38;;;;;;;6.97;2.40;;;;;;;17.12;54.38;101115.97;5214433;28;20033;-76
2022/05/11 02:38:13;;;;;;;7.57;2.80;;;;;;;17.27;53.69;101113.81;5229130;28;20030;-76
2022/05/11 02:40:46;;;;;;;7.10;2.97;;;;;;;17.19;53.56;101118.94;5228834;28;20022;-76
2022/05/11 02:43:18;;;;;;;11.53;3.07;;;;;;;17.01;54.69;101116.81;5217401;28;20028;-76
2022/05/11 02:45:49;;;;;;;5.33;2.43;;;;;;;17.19;53.60;101116.28;5231789;28;20516;-77
2022/05/11 02:48:23;;;;;;;5.83;2.20;;;;;;;17.17;53.75;101111.94;5232992;28;20472;-77
2022/05/11 02:50:57;;;;;;;6.00;2.17;;;;;;;17.14;54.15;101104.25;5233123;28;20644;-76
2022/05/11 02:53:29;;;;;;;3.22;2.17;;;;;;;17.16;53.99;101115.56;5224053;28;20450;-76
2022/05/11 02:56:01;;;;;;;5.73;2.70;;;;;;;16.99;54.24;101094.94;5232979;28;20416;-76
2022/05/11 02:58:33;;;;;;;6.10;2.10;;;;;;;17.05;54.27;101107.66;5218350;28;20468;-76
2022/05/11 03:01:04;;;;;;;10.30;2.33;;;;;;;17.05;54.39;101112.97;5212896;28;20036;-77
2022/05/11 03:03:36;;;;;;;5.23;2.20;;;;;;;17.02;54.20;101103.47;5211417;28;20452;-76
2022/05/11 03:06:07;;;;;;;4.33;1.97;;;;;;;17.07;54.36;101108.34;5229512;28;20045;-76
2022/05/11 03:08:38;;;;;;;6.70;2.10;;;;;;;17.08;54.33;101098.63;5218047;28;20498;-76
2022/05/11 03:11:09;;;;;;;11.80;2.30;;;;;;;17.07;54.69;101104.88;5217324;28;20106;-76
2022/05/11 03:13:41;;;;;;;4.80;2.33;;;;;;;17.03;54.71;101089.28;5227176;28;20041;-76
2022/05/11 03:16:12;;;;;;;4.77;1.73;;;;;;;17.02;54.81;101090.22;5213124;28;20025;-76
2022/05/11 03:18:43;;;;;;;4.90;1.80;;;;;;;17.03;54.58;101091.06;5229444;28;20090;-76
2022/05/11 03:21:15;;;;;;;6.50;2.00;;;;;;;17.01;54.76;101087.72;5212151;28;20036;-76
2022/05/11 03:23:46;;;;;;;4.87;2.17;;;;;;;17.01;54.69;101085.91;5216368;28;20092;-76
2022/05/11 03:26:18;;;;;;;7.87;1.80;;;;;;;17.02;54.77;101078.78;5210088;28;20432;-76
2022/05/11 03:28:49;;;;;;;5.80;1.77;;;;;;;17.05;54.81;101078.56;5212177;28;20551;-76
2022/05/11 03:31:21;;;;;;;7.90;2.37;;;;;;;17.01;54.66;101077.13;5210677;28;20526;-76
2022/05/11 03:36:42;;;;;;;3.27;1.63;;;;;;;16.67;55.84;101072.84;5231416;28;20325;-76
2022/05/11 03:39:15;;;;;;;5.43;1.73;;;;;;;16.98;54.84;101075.59;5230500;28;20670;-77
2022/05/11 03:41:46;;;;;;;4.50;2.17;;;;;;;16.94;54.85;101071.53;5227203;28;20543;-76
2022/05/11 03:44:17;;;;;;;6.77;2.53;;;;;;;16.95;55.04;101072.38;5226500;28;20029;-76
2022/05/11 03:46:48;;;;;;;8.20;2.03;;;;;;;16.95;54.75;101067.06;5231798;28;20051;-76
2022/05/11 03:49:21;;;;;;;6.13;2.37;;;;;;;16.99;54.85;101063.19;5232607;28;20627;-76
2022/05/11 03:51:52;;;;;;;10.20;2.00;;;;;;;16.98;54.52;101072.94;5235712;28;20025;-76
2022/05/11 03:54:24;;;;;;;4.40;1.60;;;;;;;16.82;55.37;101057.50;5238636;28;20037;-76
2022/05/11 03:56:55;;;;;;;6.00;1.70;;;;;;;16.90;55.11;101054.22;5237384;28;20032;-76
2022/05/11 03:59:26;;;;;;;7.03;1.70;;;;;;;16.95;54.74;101056.50;5236780;28;20029;-76
2022/05/11 04:01:57;;;;;;;8.37;1.77;;;;;;;16.81;55.54;101066.41;5228364;28;20038;-75
2022/05/11 04:04:29;;;;;;;12.83;2.07;;;;;;;16.82;55.19;101068.09;5229687;28;20080;-76
2022/05/11 04:07:00;;;;;;;6.67;2.60;;;;;;;16.77;55.30;101057.06;5235112;28;20026;-76
2022/05/11 04:09:31;;;;;;;6.00;1.80;;;;;;;16.82;55.34;101054.88;5233844;28;20096;-76
2022/05/11 04:12:03;;;;;;;9.23;2.70;;;;;;;16.84;55.08;101060.88;5233512;28;20025;-76
2022/05/11 04:14:34;;;;;;;6.17;1.93;;;;;;;16.76;55.48;101061.50;5215468;28;20484;-76
2022/05/11 04:17:05;;;;;;;3.57;1.67;;;;;;;16.68;55.89;101062.16;5216788;28;20057;-76
2022/05/11 04:19:37;;;;;;;7.97;2.07;;;;;;;16.71;55.76;101053.13;5227695;28;20037;-76
2022/05/11 04:22:08;;;;;;;7.23;2.20;;;;;;;16.65;56.17;101061.56;5217694;28;20026;-76
2022/05/11 04:24:39;;;;;;;5.53;1.97;;;;;;;16.60;56.37;101056.63;5235125;28;20033;-76
2022/05/11 04:27:11;;;;;;;7.83;1.83;;;;;;;16.61;56.25;101055.69;5217932;28;20025;-76
2022/05/11 04:29:42;;;;;;;3.60;1.40;;;;;;;16.44;57.07;101065.00;5224979;28;20096;-77
2022/05/11 04:32:14;;;;;;;6.17;2.10;;;;;;;16.54;56.48;101063.28;5224640;28;20029;-76
2022/05/11 04:34:46;;;;;;;4.87;1.60;;;;;;;16.51;56.86;101060.88;5238689;28;20017;-76
2022/05/11 04:37:18;;;;;;;6.13;1.60;;;;;;;16.51;56.89;101065.34;5232373;28;20083;-76
2022/05/11 04:39:49;;;;;;;8.40;2.30;;;;;;;16.52;56.63;101056.44;5234675;28;20498;-76
2022/05/11 04:42:21;;;;;;;5.57;2.03;;;;;;;16.50;56.59;101063.66;5213874;28;20025;-76
2022/05/11 04:44:53;;;;;;;10.77;2.60;;;;;;;16.47;56.97;101053.34;5215112;28;20025;-70
2022/05/11 04:47:24;;;;;;;5.53;1.67;;;;;;;16.47;57.09;101058.63;5228455;28;20033;-76
2022/05/11 04:49:57;;;;;;;6.73;1.83;;;;;;;16.41;57.41;101059.94;5232096;28;20479;-76
2022/05/11 04:52:28;;;;;;;6.30;2.10;;;;;;;16.36;57.70;101062.13;5234782;28;20041;-76
2022/05/11 04:54:59;;;;;;;5.07;1.90;;;;;;;16.33;57.75;101058.78;5234521;28;20087;-76
2022/05/11 04:57:31;;;;;;;8.97;3.37;;;;;;;16.28;57.82;101055.69;5232649;28;20030;-75
2022/05/11 05:00:05;;;;;;;11.17;2.83;;;;;;;16.33;57.96;101058.78;5225514;28;20032;-75
2022/05/11 05:02:36;;;;;;;10.43;2.40;;;;;;;16.32;57.99;101054.47;5228635;28;20030;-76
2022/05/11 05:05:10;;;;;;;4.57;1.90;;;;;;;16.25;58.30;101060.38;5214877;28;20060;-76
2022/05/11 05:07:41;;;;;;;3.42;1.75;;;;;;;16.25;58.47;101058.56;5220398;28;20025;-76
2022/05/11 05:10:15;;;;;;;5.57;2.13;;;;;;;16.23;58.70;101062.31;5229175;28;20029;-76
2022/05/11 05:12:46;;;;;;;2.85;1.75;;;;;;;16.25;58.45;101063.03;5231962;28;20036;-76
2022/05/11 05:15:18;;;;;;;5.20;2.33;;;;;;;16.25;58.47;101057.75;5228566;28;20026;-75
2022/05/11 05:17:52;;;;;;;8.70;2.60;;;;;;;16.30;58.54;101068.78;5223390;28;20034;-75
2022/05/11 05:20:23;;;;;;;;;;;;;;;16.40;57.08;101068.84;5234009;28;20079;-74
2022/05/11 05:22:55;;;;;;;8.43;2.37;;;;;;;16.28;58.60;101070.69;5231280;28;20024;-75
2022/05/11 05:25:26;;;;;;;11.13;2.90;;;;;;;16.20;59.11;101058.94;5224873;28;20037;-74
2022/05/11 05:31:04;;;;;;;4.67;2.10;;;;;;;16.15;58.98;101063.75;5223209;28;20063;-74
2022/05/11 05:31:08;;;;;;;7.30;2.27;;;;;;;16.15;59.16;101073.47;5221447;28;20040;-74
2022/05/11 05:33:39;;;;;;;7.03;2.40;;;;;;;16.27;59.14;101082.22;5223370;28;20082;-73
2022/05/11 05:36:11;;;;;;;4.03;1.93;;;;;;;16.26;58.90;101069.97;5225889;28;20052;-74
2022/05/11 05:38:43;;;;;;;5.60;2.20;;;;;;;16.22;59.24;101079.94;5225402;28;20033;-74
2022/05/11 05:41:14;;;;;;;7.57;2.57;;;;;;;16.27;59.20;101075.13;5224771;28;20033;-74
2022/05/11 05:43:45;;;;;;;4.57;2.20;;;;;;;16.28;59.19;101076.84;5218458;28;20034;-74
2022/05/11 05:46:17;;;;;;;5.37;2.80;;;;;;;16.28;58.70;101074.19;5220432;28;20045;-73
2022/05/11 05:48:49;;;;;;;7.10;2.47;;;;;;;16.25;58.80;101076.22;5225015;28;20416;-74
2022/05/11 05:51:23;;;;;;;8.93;2.37;;;;;;;16.24;59.43;101075.38;5224392;28;20488;-74
2022/05/11 05:53:55;;;;;;;5.55;2.42;;;;;;;16.28;59.25;101070.69;5225840;28;20040;-75
2022/05/11 05:56:26;;;;;;;5.70;2.37;;;;;;;16.35;59.45;101079.81;5226001;28;20018;-75
2022/05/11 05:59:01;;;;;;;5.03;2.30;;;;;;;16.14;59.15;101067.38;5215698;28;20014;-74
2022/05/11 06:01:33;;;;;;;2.87;2.20;;;;;;;16.31;58.71;101092.44;5223978;28;20715;-74
2022/05/11 06:04:05;;;;;;;5.97;2.13;;;;;;;16.35;58.57;101085.09;5222902;28;20024;-74
2022/05/11 06:06:36;;;;;;;8.87;2.30;;;;;;;16.28;58.27;101079.47;5217152;28;20046;-74
2022/05/11 06:09:09;;;;;;;7.40;2.20;;;;;;;16.27;58.10;101071.63;5223744;28;20033;-73
2022/05/11 06:11:40;;;;;;;5.70;2.30;;;;;;;16.35;58.26;101087.75;5211534;28;20053;-74
2022/05/11 06:14:12;;;;;;;10.77;2.57;;;;;;;16.40;57.65;101075.00;5225311;28;20832;-73
2022/05/11 06:16:43;;;;;;;10.73;3.30;;;;;;;16.37;57.68;101066.47;5221980;28;20018;-74
2022/05/11 06:19:14;;;;;;;5.00;1.70;;;;;;;16.43;57.23;101080.03;5214264;28;20568;-75
2022/05/11 06:21:47;;;;;;;7.37;1.90;;;;;;;16.51;57.08;101086.50;5232617;28;20376;-75
2022/05/11 06:24:18;;;;;;;4.83;1.70;;;;;;;16.49;56.63;101078.69;5221399;28;21723;-74
2022/05/11 06:26:50;;;;;;;8.87;2.33;;;;;;;16.52;55.66;101077.59;5221909;28;20045;-75
2022/05/11 06:29:21;;;;;;;6.63;1.70;;;;;;;16.59;56.14;101075.28;5222022;28;20029;-75
2022/05/11 06:31:52;;;;;;;3.37;1.93;;;;;;;16.61;55.34;101066.25;5222318;28;20201;-75
2022/05/11 06:34:24;;;;;;;7.27;2.43;;;;;;;16.65;54.41;101066.84;5221789;28;20044;-74
2022/05/11 06:36:56;;;;;;;5.70;1.50;;;;;;;16.71;54.42;101062.84;5222076;28;20460;-75
2022/05/11 06:39:27;;;;;;;4.87;1.60;;;;;;;16.74;54.67;101059.97;5223232;28;20049;-74
2022/05/11 06:41:59;;;;;;;5.67;1.40;;;;;;;16.75;54.95;101056.34;5214676;28;20018;-75
2022/05/11 06:44:30;;;;;;;7.63;1.80;;;;;;;16.73;54.00;101052.97;5231868;28;20040;-75
2022/05/11 06:47:02;;;;;;;5.30;1.63;;;;;;;16.90;53.55;101056.84;5224881;28;20583;-75
2022/05/11 06:49:33;;;;;;;2.83;1.50;;;;;;;16.94;53.78;101060.94;5220053;28;20037;-75
2022/05/11 06:52:05;;;;;;;4.20;1.67;;;;;;;16.99;53.41;101055.25;5225103;28;20041;-75
2022/05/11 07:00:31;;;;;;;6.70;1.97;;;;;;;17.31;52.80;101067.59;5212807;28;20048;-75
2022/05/11 07:03:04;;;;;;;4.97;2.00;;;;;;;17.40;51.65;101064.16;5230382;28;20033;-77
2022/05/11 07:05:36;;;;;;;6.53;1.80;;;;;;;17.61;52.11;101068.56;5215031;28;20045;-79
2022/05/11 07:08:08;;;;;;;6.93;2.00;;;;;;;17.74;51.50;101062.19;5225078;28;20033;-77
2022/05/11 07:10:42;;;;;;;7.17;1.93;;;;;;;18.03;50.96;101069.41;5226556;28;20037;-77
2022/05/11 07:13:14;;;;;;;7.07;2.00;;;;;;;18.19;50.51;101060.09;5222563;28;20022;-79
2022/05/11 07:15:45;;;;;;;9.90;2.47;;;;;;;18.13;50.05;101064.97;5223965;28;20203;-76
2022/05/11 07:18:19;;;;;;;7.03;2.30;;;;;;;18.50;49.49;101071.44;5216929;28;20358;-74
2022/05/11 07:20:51;;;;;;;4.80;1.55;;;;;;;18.88;49.09;101068.09;5223740;28;20034;-74
2022/05/11 07:23:24;;;;;;;9.47;2.50;;;;;;;19.28;48.29;101058.28;5216481;28;20025;-74
2022/05/11 07:25:56;;;;;;;10.43;2.63;;;;;;;19.58;47.21;101056.31;5228697;28;20025;-73
2022/05/11 07:28:27;;;;;;;8.00;2.20;;;;;;;20.06;45.91;101053.59;5216350;28;20384;-75
2022/05/11 07:30:59;;;;;;;8.03;2.47;;;;;;;20.66;45.02;101061.13;5217241;28;20018;-74
2022/05/11 07:33:31;;;;;;;6.40;2.33;;;;;;;21.09;44.19;101058.63;5228157;28;20032;-73
2022/05/11 07:36:03;;;;;;;5.37;1.80;;;;;;;21.48;42.04;101064.50;5219220;28;20034;-74
2022/05/11 07:38:38;;;;;;;15.40;2.13;;;;;;;21.63;41.24;101054.91;5223822;28;20029;-74
2022/05/11 07:41:10;;;;;;;8.90;2.57;;;;;;;21.92;40.71;101063.56;5220838;28;20029;-72
2022/05/11 07:43:42;;;;;;;8.02;1.80;;;;;;;22.28;38.79;101070.47;5229779;28;20103;-74
2022/05/11 07:46:13;;;;;;;4.70;1.70;;;;;;;22.60;38.37;101068.00;5224303;28;20030;-73
2022/05/11 07:48:47;;;;;;;9.30;1.73;;;;;;;22.91;37.42;101072.69;5229185;28;20092;-74
2022/05/11 07:51:18;;;;;;;6.00;1.88;;;;;;;22.84;36.99;101050.31;5225295;28;20480;-73
2022/05/11 07:53:49;;;;;;;6.88;1.60;;;;;;;23.44;37.14;101072.25;5220431;28;20028;-73
2022/05/11 08:02:00;;;;;;;5.75;1.70;;;;;;;23.81;35.84;101067.25;5217351;28;20050;-73
2022/05/11 08:04:31;;;;;;;6.10;1.70;;;;;;;24.07;35.35;101069.81;5216755;28;20369;-74
2022/05/11 08:07:04;;;;;;;8.40;2.40;;;;;;;24.64;34.89;101067.75;5224534;28;20689;-74
2022/05/11 08:09:36;;;;;;;6.85;1.90;;;;;;;24.41;34.67;101077.47;5213280;28;20041;-74
2022/05/11 08:12:08;;;;;;;5.90;2.33;;;;;;;24.32;34.63;101081.19;5218031;28;20022;-74
2022/05/11 08:14:39;;;;;;;5.28;1.73;;;;;;;24.43;34.41;101068.41;5218176;28;20037;-76
2022/05/11 08:17:10;;;;;;;7.15;2.28;;;;;;;24.47;34.09;101048.31;5223895;28;20030;-75
2022/05/11 08:19:42;;;;;;;12.32;2.75;;;;;;;24.39;34.67;101062.56;5217333;28;20034;-75
2022/05/11 08:22:14;;;;;;;7.07;2.65;;;;;;;24.49;34.18;101068.53;5215100;28;20021;-75
2022/05/11 08:24:45;;;;;;;6.25;2.50;;;;;;;25.04;33.15;101056.84;5212997;28;20030;-75
2022/05/11 08:27:21;;;;;;;10.48;3.67;;;;;;;25.52;32.43;101060.19;5210678;28;20045;-75
2022/05/11 08:35:32;;;;;;;5.47;2.20;;;;;;;26.33;31.09;101053.03;5223208;28;20037;-76
2022/05/11 08:38:03;;;;;;;6.75;1.90;;;;;;;27.11;31.01;101054.06;5233054;28;20021;-76
2022/05/11 08:40:34;;;;;;;10.13;2.85;;;;;;;27.43;29.92;101064.38;5234643;28;20021;-75
2022/05/11 08:43:10;;;;;;;11.00;2.30;;;;;;;27.55;29.80;101056.56;5235765;28;20025;-76
2022/05/11 08:46:01;;;;;;;8.73;2.10;;;;;;;27.64;29.61;101066.13;5235229;28;20113;-76
2022/05/11 08:49:05;;;;;;;7.70;2.50;;;;;;;27.96;30.30;101057.53;5229293;28;20408;-77
2022/05/11 08:51:41;;;;;;;10.15;2.20;;;;;;;28.32;28.83;101054.69;5214440;28;20417;-76
2022/05/11 08:54:24;;;;;;;7.70;2.38;;;;;;;28.65;28.27;101059.28;5212996;28;20044;-76
2022/05/11 08:56:55;;;;;;;11.00;2.43;;;;;;;29.34;27.71;101066.22;5214282;28;20439;-75
2022/05/11 08:59:30;;;;;;;7.50;2.17;;;;;;;29.11;27.53;101064.84;5214814;28;20347;-76
2022/05/11 09:02:31;;;;;;;10.90;2.50;;;;;;;29.35;27.51;101060.63;5212795;28;20524;-77
2022/05/11 09:05:04;;;;;;;6.20;1.83;;;;;;;29.28;26.77;101051.72;5213871;28;20046;-76
2022/05/11 09:07:40;;;;;;;10.30;1.95;;;;;;;29.69;26.93;101055.09;5212850;28;20069;-76
2022/05/11 09:10:20;;;;;;;7.05;2.10;;;;;;;29.83;26.67;101057.75;5212593;28;20029;-76
2022/05/11 09:12:57;;;;;;;10.30;2.05;;;;;;;29.92;26.63;101056.41;5213398;28;20030;-76
2022/05/11 09:15:55;;;;;;;11.00;2.17;;;;;;;30.37;26.45;101051.97;5214117;28;20026;-76
2022/05/11 09:18:39;;;;;;;8.23;2.03;;;;;;;30.16;26.21;101056.66;5214321;28;20481;-76
2022/05/11 09:21:20;;;;;;;6.80;2.40;;;;;;;29.93;25.62;101047.31;5213727;28;20037;-76
2022/05/11 09:24:13;;;;;;;8.75;2.22;;;;;;;30.48;26.31;101041.50;5212015;28;20037;-76
2022/05/11 09:26:47;;;;;;;9.38;2.50;;;;;;;30.75;25.46;101035.84;5212643;28;20053;-76
2022/05/11 09:29:22;;;;;;;8.80;2.42;;;;;;;30.26;25.59;101040.03;5223075;28;20091;-76
2022/05/11 09:31:53;;;;;;;4.97;2.47;;;;;;;29.55;26.73;101042.69;5232576;28;20472;-77
2022/05/11 09:34:31;;;;;;;7.78;2.35;;;;;;;30.02;26.01;101034.34;5232835;28;20025;-77
2022/05/11 09:37:32;;;;;;;13.20;2.20;;;;;;;30.28;26.63;101048.75;5222680;28;20037;-77
2022/05/11 09:40:12;;;;;;;10.25;2.20;;;;;;;30.45;25.72;101040.06;5212850;28;20112;-75
2022/05/11 09:42:52;;;;;;;10.82;2.22;;;;;;;30.56;25.91;101043.94;5213442;28;20062;-76
2022/05/11 09:45:48;;;;;;;9.25;2.50;;;;;;;31.52;25.39;101029.19;5210551;28;20084;-76
2022/05/11 09:48:24;;;;;;;8.77;2.33;;;;;;;30.64;24.93;101035.53;5212979;28;20120;-76
2022/05/11 09:51:14;;;;;;;6.57;2.30;;;;;;;30.11;26.25;101026.81;5213509;28;20377;-76
2022/05/11 09:53:55;;;;;;;5.00;1.75;;;;;;;30.97;25.53;101028.16;5212533;28;20022;-76
2022/05/11 09:56:32;;;;;;;6.65;2.20;;;;;;;30.73;25.32;101027.13;5212784;28;20022;-76
2022/05/11 09:59:27;;;;;;;6.13;2.15;;;;;;;31.42;25.22;101011.84;5213181;28;20056;-76
2022/05/11 10:02:25;;;;;;;10.50;2.33;;;;;;;31.74;25.04;101025.13;5213113;28;20026;-77
2022/05/11 10:05:13;;;;;;;8.57;2.90;;;;;;;31.06;24.59;101025.97;5210781;28;20034;-77
2022/05/11 10:08:19;;;;;;;9.40;2.40;;;;;;;31.39;25.39;101034.75;5218522;28;20113;-76
2022/05/11 10:11:23;;;;;;;7.03;2.30;;;;;;;31.27;24.62;101023.88;5232560;28;20403;-75
2022/05/11 10:14:01;;;;;;;6.30;2.63;;;;;;;31.64;24.80;101020.28;5209868;28;20052;-76
2022/05/11 10:22:44;;;;;;;8.68;2.90;;;;;;;31.39;24.26;101024.75;5231864;28;20038;-73
2022/05/11 10:25:20;;;;;;;4.93;2.15;;;;;;;31.59;24.07;101012.84;5231040;28;20024;-75
2022/05/11 10:28:14;;;;;;;6.82;2.47;;;;;;;32.06;23.88;101013.25;5210807;28;20052;-75
2022/05/11 10:30:58;;;;;;;8.95;2.00;;;;;;;32.38;24.04;101020.22;5219868;28;20561;-75
2022/05/11 10:33:42;;;;;;;9.45;3.05;;;;;;;32.17;23.99;101017.03;5233185;28;20041;-77
2022/05/11 10:36:37;;;;;;;10.05;2.72;;;;;;;32.18;24.01;101007.84;5228296;28;20022;-76
2022/05/11 10:39:22;;;;;;;7.95;2.10;;;;;;;32.29;24.14;100993.47;5210993;28;20104;-76
2022/05/11 10:42:05;;;;;;;5.13;1.80;;;;;;;32.56;23.71;101008.47;5212251;28;20095;-75
2022/05/11 10:45:15;;;;;;;9.65;2.25;;;;;;;32.88;23.77;100991.81;5212372;28;20582;-78
2022/05/11 10:48:00;;;;;;;10.95;2.42;;;;;;;33.22;23.09;100991.13;5212479;28;20105;-76
2022/05/11 10:50:47;;;;;;;16.35;2.00;;;;;;;32.63;22.84;100994.78;5211614;28;20026;-73
2022/05/11 10:53:20;;;;;;;12.60;2.22;;;;;;;32.04;22.37;100991.81;5214613;28;20496;-76
2022/05/11 10:56:04;;;;;;;4.57;2.08;;;;;;;32.21;22.83;100985.69;5210781;28;20058;-75
2022/05/11 10:58:58;;;;;;;8.75;2.28;;;;;;;32.41;23.00;100998.06;5211254;28;20038;-75
2022/05/11 11:01:46;;;;;;;7.57;2.25;;;;;;;32.94;23.01;100974.56;5212958;28;20029;-75
2022/05/11 11:04:27;;;;;;;14.30;2.55;;;;;;;32.77;22.83;100979.91;5230298;28;20056;-75
2022/05/11 11:07:26;;;;;;;10.18;2.50;;;;;;;32.71;23.11;100989.00;5231032;28;20036;-75
2022/05/11 11:10:11;;;;;;;11.60;2.60;;;;;;;32.73;22.98;100978.72;5232291;28;20510;-76
2022/05/11 11:13:22;;;;;;;7.55;2.42;;;;;;;32.91;22.24;100983.19;5232360;28;20060;-76
2022/05/11 11:15:54;;;;;;;11.73;2.45;;;;;;;32.14;22.25;100969.56;5230083;28;20029;-76
2022/05/11 11:18:32;;;;;;;11.57;2.93;;;;;;;31.58;23.02;100972.47;5231425;28;20632;-75
2022/05/11 11:21:05;;;;;;;7.65;2.28;;;;;;;31.63;23.23;100975.31;5232319;28;20469;-75
2022/05/11 11:23:45;;;;;;;7.85;1.92;;;;;;;31.68;23.96;100969.22;5228403;28;20100;-76
2022/05/11 11:26:28;;;;;;;9.90;2.55;;;;;;;31.83;23.85;100971.50;5227420;28;20073;-75
2022/05/11 11:29:00;;;;;;;6.65;2.38;;;;;;;31.39;23.38;100958.97;5225964;28;20554;-76
2022/05/11 11:31:31;;;;;;;7.32;2.42;;;;;;;31.29;23.46;100967.66;5219209;28;20036;-75
2022/05/11 11:34:05;;;;;;;9.20;2.28;;;;;;;31.42;23.69;100957.75;5229296;28;20083;-76
2022/05/11 11:36:40;;;;;;;10.27;2.38;;;;;;;30.86;23.66;100958.63;5218180;28;20046;-76
2022/05/11 11:39:32;;;;;;;14.27;2.83;;;;;;;30.74;24.33;100950.44;5216789;28;20100;-75
2022/05/11 11:42:06;;;;;;;12.80;2.25;;;;;;;30.94;24.21;100957.47;5211224;28;20108;-76
2022/05/11 11:44:47;;;;;;;7.25;2.10;;;;;;;30.89;23.66;100923.88;5215110;28;20033;-76
2022/05/11 11:47:40;;;;;;;11.95;2.72;;;;;;;30.79;24.50;100945.16;5221502;28;20376;-72
2022/05/11 11:50:33;;;;;;;6.67;2.10;;;;;;;30.63;24.25;100943.88;5221310;28;20087;-73
2022/05/11 11:53:10;;;;;;;8.03;2.03;;;;;;;30.41;24.55;100938.91;5217821;28;20028;-73
2022/05/11 11:55:41;;;;;;;11.90;1.73;;;;;;;30.80;24.27;100936.00;5206860;28;20291;-74
2022/05/11 11:58:31;;;;;;;8.13;3.03;;;;;;;30.93;24.12;100947.75;5216325;28;20392;-75
2022/05/11 12:01:06;;;;;;;6.75;2.08;;;;;;;30.25;24.47;100934.91;5231319;28;20032;-76
2022/05/11 12:03:52;;;;;;;13.32;1.95;;;;;;;29.88;25.97;100941.00;5230700;28;20051;-75
2022/05/11 12:15:25;;;;;;;6.47;2.10;;;;;;;30.04;24.84;100928.84;5235016;28;20034;-75
2022/05/11 12:17:57;;;;;;;5.93;2.10;;;;;;;30.05;24.65;100917.81;5216601;28;20034;-76
2022/05/11 12:20:44;;;;;;;12.73;2.20;;;;;;;29.99;25.48;100917.88;5235452;28;20030;-76
2022/05/11 12:23:22;;;;;;;16.60;2.95;;;;;;;29.59;25.87;100909.00;5233849;28;20056;-76
2022/05/11 12:25:58;;;;;;;11.60;2.63;;;;;;;30.06;24.74;100905.13;5233928;28;20499;-76
2022/05/11 12:28:34;;;;;;;10.02;2.30;;;;;;;29.83;25.06;100918.19;5235480;28;20525;-75
2022/05/11 12:31:06;;;;;;;11.25;2.35;;;;;;;30.20;25.11;100900.44;5235703;28;20040;-75
2022/05/11 12:33:42;;;;;;;21.33;4.47;;;;;;;30.05;24.79;100906.19;5234662;28;20042;-75
2022/05/11 12:36:14;;;;;;;14.70;2.40;;;;;;;29.95;24.93;100902.09;5234973;28;20045;-75
2022/05/11 12:38:51;;;;;;;11.10;2.70;;;;;;;29.98;24.70;100908.94;5233715;28;20030;-75
2022/05/11 12:41:22;;;;;;;11.93;2.33;;;;;;;29.53;25.37;100912.59;5235292;28;20029;-72
2022/05/11 12:44:12;;;;;;;5.43;1.92;;;;;;;29.98;25.29;100913.50;5234465;28;20036;-76
2022/05/11 12:46:44;;;;;;;8.40;3.00;;;;;;;28.50;26.46;100890.63;5234960;28;20034;-76